sensor_id;sensor_type;location;lat;lon;timestamp;pressure;altitude;pressure_sealevel;temperature;humidity
35918;BME280;22011;59.912;30.300;2023-10-19T00:02:09;100995.34;;;6.29;66.00
35918;BME280;22011;59.912;30.300;2023-10-19T00:04:41;100992.50;;;6.91;61.25
35918;BME280;22011;59.912;30.300;2023-10-19T00:07:08;100988.03;;;6.92;60.27
35918;BME280;22011;59.912;30.300;2023-10-19T00:09:43;100996.13;;;6.50;61.44
35918;BME280;22011;59.912;30.300;2023-10-19T00:12:14;100990.44;;;6.54;70.38
35918;BME280;22011;59.912;30.300;2023-10-19T00:14:42;100991.41;;;6.53;64.47
35918;BME280;22011;59.912;30.300;2023-10-19T00:17:10;100985.63;;;6.39;63.83
35918;BME280;22011;59.912;30.300;2023-10-19T00:19:37;100991.13;;;6.16;63.90
35918;BME280;22011;59.912;30.300;2023-10-19T00:22:16;101000.44;;;5.90;65.32
35918;BME280;22011;59.912;30.300;2023-10-19T00:24:48;101004.97;;;5.67;66.01
35918;BME280;22011;59.912;30.300;2023-10-19T00:27:17;101006.88;;;5.97;65.16
35918;BME280;22011;59.912;30.300;2023-10-19T00:29:48;100995.56;;;6.46;64.58
35918;BME280;22011;59.912;30.300;2023-10-19T00:32:15;101007.25;;;6.44;63.04
35918;BME280;22011;59.912;30.300;2023-10-19T00:34:45;101001.22;;;6.32;63.44
35918;BME280;22011;59.912;30.300;2023-10-19T00:37:18;101002.63;;;6.36;62.78
35918;BME280;22011;59.912;30.300;2023-10-19T00:39:55;100993.94;;;6.24;64.46
35918;BME280;22011;59.912;30.300;2023-10-19T00:42:40;100997.91;;;6.09;64.05
35918;BME280;22011;59.912;30.300;2023-10-19T00:45:12;100993.03;;;6.75;62.60
35918;BME280;22011;59.912;30.300;2023-10-19T00:47:40;100995.25;;;6.80;61.64
35918;BME280;22011;59.912;30.300;2023-10-19T00:50:09;100999.72;;;6.79;61.21
35918;BME280;22011;59.912;30.300;2023-10-19T00:52:42;101001.19;;;7.12;69.54
35918;BME280;22011;59.912;30.300;2023-10-19T00:55:17;100997.44;;;7.53;60.66
35918;BME280;22011;59.912;30.300;2023-10-19T00:57:48;100997.53;;;8.00;59.80
35918;BME280;22011;59.912;30.300;2023-10-19T01:00:16;100997.16;;;7.76;58.41
35918;BME280;22011;59.912;30.300;2023-10-19T01:02:57;101000.91;;;7.83;61.72
35918;BME280;22011;59.912;30.300;2023-10-19T01:05:26;101002.03;;;7.42;59.52
35918;BME280;22011;59.912;30.300;2023-10-19T01:07:58;100997.44;;;7.53;62.85
35918;BME280;22011;59.912;30.300;2023-10-19T01:10:30;101007.34;;;7.32;60.13
35918;BME280;22011;59.912;30.300;2023-10-19T01:12:58;101001.75;;;7.35;62.48
35918;BME280;22011;59.912;30.300;2023-10-19T01:15:27;101009.28;;;7.30;60.37
35918;BME280;22011;59.912;30.300;2023-10-19T01:17:58;101006.13;;;6.77;60.54
35918;BME280;22011;59.912;30.300;2023-10-19T01:20:29;100999.72;;;6.79;61.67
35918;BME280;22011;59.912;30.300;2023-10-19T01:23:15;101003.84;;;6.63;62.15
35918;BME280;22011;59.912;30.300;2023-10-19T01:25:53;101005.84;;;6.80;66.90
35918;BME280;22011;59.912;30.300;2023-10-19T01:28:33;101006.47;;;7.03;62.13
35918;BME280;22011;59.912;30.300;2023-10-19T01:31:11;101007.34;;;7.13;61.07
35918;BME280;22011;59.912;30.300;2023-10-19T01:33:43;101007.19;;;7.43;67.35
35918;BME280;22011;59.912;30.300;2023-10-19T01:36:12;100999.53;;;7.21;60.66
35918;BME280;22011;59.912;30.300;2023-10-19T01:38:52;101006.09;;;7.55;61.63
35918;BME280;22011;59.912;30.300;2023-10-19T01:41:20;101007.34;;;7.61;59.45
35918;BME280;22011;59.912;30.300;2023-10-19T01:43:50;101014.31;;;7.72;60.13
35918;BME280;22011;59.912;30.300;2023-10-19T01:46:20;101010.44;;;7.28;60.08
35918;BME280;22011;59.912;30.300;2023-10-19T01:48:53;101010.31;;;6.79;62.40
35918;BME280;22011;59.912;30.300;2023-10-19T01:51:22;101008.03;;;6.35;63.38
35918;BME280;22011;59.912;30.300;2023-10-19T01:53:52;101001.72;;;6.16;65.29
35918;BME280;22011;59.912;30.300;2023-10-19T01:56:19;101010.94;;;6.01;65.51
35918;BME280;22011;59.912;30.300;2023-10-19T01:58:48;101012.03;;;6.19;66.15
35918;BME280;22011;59.912;30.300;2023-10-19T02:01:15;101005.13;;;6.38;63.96
35918;BME280;22011;59.912;30.300;2023-10-19T02:03:55;101006.31;;;6.54;63.88
35918;BME280;22011;59.912;30.300;2023-10-19T02:06:25;101008.00;;;7.05;65.28
35918;BME280;22011;59.912;30.300;2023-10-19T02:08:55;101008.53;;;6.49;64.61
35918;BME280;22011;59.912;30.300;2023-10-19T02:11:27;101014.84;;;6.28;66.19
35918;BME280;22011;59.912;30.300;2023-10-19T02:13:55;101018.88;;;6.01;65.95
35918;BME280;22011;59.912;30.300;2023-10-19T02:16:26;101010.94;;;6.32;65.14
35918;BME280;22011;59.912;30.300;2023-10-19T02:18:56;101010.47;;;6.47;65.41
35918;BME280;22011;59.912;30.300;2023-10-19T02:21:22;101008.22;;;6.43;65.00
35918;BME280;22011;59.912;30.300;2023-10-19T02:23:55;101006.28;;;6.85;63.14
35918;BME280;22011;59.912;30.300;2023-10-19T02:26:24;101002.81;;;6.84;62.56
35918;BME280;22011;59.912;30.300;2023-10-19T02:28:53;101005.72;;;6.81;68.22
35918;BME280;22011;59.912;30.300;2023-10-19T02:31:22;101016.94;;;6.64;64.81
35918;BME280;22011;59.912;30.300;2023-10-19T02:33:52;101009.34;;;6.80;64.04
35918;BME280;22011;59.912;30.300;2023-10-19T02:36:25;101002.91;;;6.73;66.34
35918;BME280;22011;59.912;30.300;2023-10-19T02:38:56;101019.25;;;6.78;63.72
35918;BME280;22011;59.912;30.300;2023-10-19T02:41:25;101015.53;;;6.60;64.15
35918;BME280;22011;59.912;30.300;2023-10-19T02:43:53;101022.34;;;6.53;64.37
35918;BME280;22011;59.912;30.300;2023-10-19T02:46:31;101017.91;;;6.33;64.63
35918;BME280;22011;59.912;30.300;2023-10-19T02:49:00;101021.31;;;6.14;66.06
35918;BME280;22011;59.912;30.300;2023-10-19T02:51:29;101021.63;;;5.79;67.06
35918;BME280;22011;59.912;30.300;2023-10-19T02:53:57;101025.03;;;5.70;68.48
35918;BME280;22011;59.912;30.300;2023-10-19T02:56:28;101022.25;;;5.71;68.14
35918;BME280;22011;59.912;30.300;2023-10-19T02:58:56;101020.13;;;5.65;68.27
35918;BME280;22011;59.912;30.300;2023-10-19T03:01:28;101020.66;;;5.80;67.60
35918;BME280;22011;59.912;30.300;2023-10-19T03:03:57;101024.59;;;5.85;67.32
35918;BME280;22011;59.912;30.300;2023-10-19T03:06:27;101022.72;;;5.76;68.00
35918;BME280;22011;59.912;30.300;2023-10-19T03:09:00;101017.47;;;6.28;67.28
35918;BME280;22011;59.912;30.300;2023-10-19T03:11:30;101014.94;;;6.47;65.51
35918;BME280;22011;59.912;30.300;2023-10-19T03:13:59;101021.38;;;6.54;65.68
35918;BME280;22011;59.912;30.300;2023-10-19T03:16:30;101015.19;;;6.74;64.73
35918;BME280;22011;59.912;30.300;2023-10-19T03:18:57;101021.00;;;7.08;67.13
35918;BME280;22011;59.912;30.300;2023-10-19T03:21:25;101017.94;;;7.32;63.23
35918;BME280;22011;59.912;30.300;2023-10-19T03:23:54;101027.25;;;6.98;63.33
35918;BME280;22011;59.912;30.300;2023-10-19T03:26:24;101021.91;;;6.48;64.87
35918;BME280;22011;59.912;30.300;2023-10-19T03:28:57;101020.75;;;6.71;67.44
35918;BME280;22011;59.912;30.300;2023-10-19T03:31:29;101022.78;;;6.58;65.76
35918;BME280;22011;59.912;30.300;2023-10-19T03:33:59;101022.38;;;6.63;64.71
35918;BME280;22011;59.912;30.300;2023-10-19T03:36:31;101024.75;;;6.66;64.42
35918;BME280;22011;59.912;30.300;2023-10-19T03:39:00;101027.72;;;6.42;65.16
35918;BME280;22011;59.912;30.300;2023-10-19T03:41:40;101026.69;;;6.33;66.10
35918;BME280;22011;59.912;30.300;2023-10-19T03:44:10;101035.53;;;6.43;65.43
35918;BME280;22011;59.912;30.300;2023-10-19T03:46:45;101038.19;;;6.43;66.26
35918;BME280;22011;59.912;30.300;2023-10-19T03:49:23;101040.44;;;6.27;65.76
35918;BME280;22011;59.912;30.300;2023-10-19T03:51:53;101033.19;;;6.80;67.73
35918;BME280;22011;59.912;30.300;2023-10-19T03:54:29;101032.00;;;7.04;63.87
35918;BME280;22011;59.912;30.300;2023-10-19T03:57:00;101043.47;;;7.24;64.00
35918;BME280;22011;59.912;30.300;2023-10-19T03:59:32;101043.56;;;7.03;62.91
35918;BME280;22011;59.912;30.300;2023-10-19T04:02:00;101047.34;;;7.10;62.57
35918;BME280;22011;59.912;30.300;2023-10-19T04:04:33;101042.75;;;7.31;63.72
35918;BME280;22011;59.912;30.300;2023-10-19T04:07:01;101038.75;;;7.75;61.06
35918;BME280;22011;59.912;30.300;2023-10-19T04:09:37;101045.16;;;7.63;60.54
35918;BME280;22011;59.912;30.300;2023-10-19T04:12:24;101045.03;;;7.94;64.19
35918;BME280;22011;59.912;30.300;2023-10-19T04:14:55;101044.75;;;7.97;60.21
35918;BME280;22011;59.912;30.300;2023-10-19T04:17:23;101044.47;;;7.90;60.33
35918;BME280;22011;59.912;30.300;2023-10-19T04:19:51;101050.47;;;7.63;60.87
35918;BME280;22011;59.912;30.300;2023-10-19T04:22:19;101049.88;;;7.21;62.56
35918;BME280;22011;59.912;30.300;2023-10-19T04:24:50;101047.69;;;6.86;63.80
35918;BME280;22011;59.912;30.300;2023-10-19T04:27:18;101056.22;;;6.89;64.29
35918;BME280;22011;59.912;30.300;2023-10-19T04:29:49;101060.91;;;7.36;68.65
35918;BME280;22011;59.912;30.300;2023-10-19T04:32:18;101061.75;;;7.27;63.31
35918;BME280;22011;59.912;30.300;2023-10-19T04:34:51;101060.66;;;6.89;64.27
35918;BME280;22011;59.912;30.300;2023-10-19T04:37:19;101059.66;;;6.80;67.14
35918;BME280;22011;59.912;30.300;2023-10-19T04:39:50;101060.13;;;6.95;64.38
35918;BME280;22011;59.912;30.300;2023-10-19T04:42:18;101064.22;;;6.69;63.91
35918;BME280;22011;59.912;30.300;2023-10-19T04:44:50;101067.69;;;6.39;65.82
35918;BME280;22011;59.912;30.300;2023-10-19T04:47:17;101078.38;;;6.07;66.54
35918;BME280;22011;59.912;30.300;2023-10-19T04:49:45;101080.25;;;5.84;67.35
35918;BME280;22011;59.912;30.300;2023-10-19T04:52:13;101083.91;;;5.72;68.98
35918;BME280;22011;59.912;30.300;2023-10-19T04:54:40;101081.66;;;5.56;68.81
35918;BME280;22011;59.912;30.300;2023-10-19T04:57:08;101085.66;;;5.50;70.49
35918;BME280;22011;59.912;30.300;2023-10-19T04:59:37;101085.06;;;5.47;69.93
35918;BME280;22011;59.912;30.300;2023-10-19T05:02:06;101091.69;;;5.41;70.03
35918;BME280;22011;59.912;30.300;2023-10-19T05:04:33;101090.97;;;5.28;70.45
35918;BME280;22011;59.912;30.300;2023-10-19T05:07:02;101093.88;;;5.25;70.39
35918;BME280;22011;59.912;30.300;2023-10-19T05:09:30;101088.59;;;5.25;71.11
35918;BME280;22011;59.912;30.300;2023-10-19T05:11:57;101087.75;;;5.24;71.63
35918;BME280;22011;59.912;30.300;2023-10-19T05:14:25;101085.81;;;5.26;71.48
35918;BME280;22011;59.912;30.300;2023-10-19T05:16:52;101085.00;;;5.26;70.54
35918;BME280;22011;59.912;30.300;2023-10-19T05:19:21;101094.22;;;5.32;71.65
35918;BME280;22011;59.912;30.300;2023-10-19T05:21:49;101086.91;;;5.24;71.55
35918;BME280;22011;59.912;30.300;2023-10-19T05:24:17;101090.63;;;5.21;72.22
35918;BME280;22011;59.912;30.300;2023-10-19T05:26:45;101097.59;;;5.22;72.35
35918;BME280;22011;59.912;30.300;2023-10-19T05:29:13;101097.88;;;5.19;71.83
35918;BME280;22011;59.912;30.300;2023-10-19T05:31:40;101101.78;;;5.25;72.09
35918;BME280;22011;59.912;30.300;2023-10-19T05:34:08;101107.31;;;5.22;71.66
35918;BME280;22011;59.912;30.300;2023-10-19T05:36:37;101099.88;;;5.27;71.58
35918;BME280;22011;59.912;30.300;2023-10-19T05:39:05;101100.59;;;5.29;71.69
35918;BME280;22011;59.912;30.300;2023-10-19T05:41:34;101103.13;;;5.31;72.10
35918;BME280;22011;59.912;30.300;2023-10-19T05:44:01;101101.56;;;5.28;71.85
35918;BME280;22011;59.912;30.300;2023-10-19T05:46:30;101112.38;;;5.25;71.22
35918;BME280;22011;59.912;30.300;2023-10-19T05:48:58;101114.75;;;5.28;71.51
35918;BME280;22011;59.912;30.300;2023-10-19T05:51:27;101118.72;;;5.34;71.70
35918;BME280;22011;59.912;30.300;2023-10-19T05:53:56;101109.00;;;5.34;70.78
35918;BME280;22011;59.912;30.300;2023-10-19T05:56:28;101119.56;;;5.34;70.78
35918;BME280;22011;59.912;30.300;2023-10-19T05:58:56;101112.94;;;5.40;71.55
35918;BME280;22011;59.912;30.300;2023-10-19T06:01:24;101119.66;;;5.44;71.62
35918;BME280;22011;59.912;30.300;2023-10-19T06:03:52;101118.81;;;5.43;71.75
35918;BME280;22011;59.912;30.300;2023-10-19T06:06:20;101126.63;;;5.45;71.84
35918;BME280;22011;59.912;30.300;2023-10-19T06:08:48;101122.78;;;5.49;72.66
35918;BME280;22011;59.912;30.300;2023-10-19T06:11:23;101135.38;;;5.56;72.67
35918;BME280;22011;59.912;30.300;2023-10-19T06:13:51;101128.06;;;5.49;71.57
35918;BME280;22011;59.912;30.300;2023-10-19T06:16:18;101131.41;;;5.51;70.82
35918;BME280;22011;59.912;30.300;2023-10-19T06:18:47;101128.53;;;5.54;71.69
35918;BME280;22011;59.912;30.300;2023-10-19T06:21:17;101135.13;;;5.59;71.30
35918;BME280;22011;59.912;30.300;2023-10-19T06:23:45;101137.31;;;5.54;71.79
35918;BME280;22011;59.912;30.300;2023-10-19T06:26:13;101133.09;;;5.52;72.08
35918;BME280;22011;59.912;30.300;2023-10-19T06:28:42;101145.69;;;5.59;71.29
35918;BME280;22011;59.912;30.300;2023-10-19T06:31:10;101145.44;;;5.63;71.56
35918;BME280;22011;59.912;30.300;2023-10-19T06:33:37;101146.88;;;5.67;71.89
35918;BME280;22011;59.912;30.300;2023-10-19T06:36:07;101144.97;;;5.69;71.12
35918;BME280;22011;59.912;30.300;2023-10-19T06:38:35;101146.25;;;5.74;71.74
35918;BME280;22011;59.912;30.300;2023-10-19T06:41:10;101152.22;;;5.87;71.52
35918;BME280;22011;59.912;30.300;2023-10-19T06:43:38;101156.22;;;5.82;70.61
35918;BME280;22011;59.912;30.300;2023-10-19T06:46:07;101156.09;;;5.95;70.28
35918;BME280;22011;59.912;30.300;2023-10-19T06:48:37;101162.81;;;5.99;69.78
35918;BME280;22011;59.912;30.300;2023-10-19T06:51:05;101164.47;;;6.00;70.76
35918;BME280;22011;59.912;30.300;2023-10-19T06:53:32;101162.56;;;6.02;70.13
35918;BME280;22011;59.912;30.300;2023-10-19T06:56:00;101165.44;;;5.99;69.45
35918;BME280;22011;59.912;30.300;2023-10-19T06:58:30;101163.41;;;6.02;69.30
35918;BME280;22011;59.912;30.300;2023-10-19T07:00:58;101175.41;;;6.06;69.25
35918;BME280;22011;59.912;30.300;2023-10-19T07:03:33;101164.31;;;6.12;69.12
35918;BME280;22011;59.912;30.300;2023-10-19T07:06:01;101174.66;;;6.15;68.72
35918;BME280;22011;59.912;30.300;2023-10-19T07:08:29;101177.75;;;6.20;68.07
35918;BME280;22011;59.912;30.300;2023-10-19T07:10:56;101176.06;;;6.19;68.80
35918;BME280;22011;59.912;30.300;2023-10-19T07:13:25;101174.28;;;6.20;68.26
35918;BME280;22011;59.912;30.300;2023-10-19T07:15:53;101179.94;;;6.15;67.82
35918;BME280;22011;59.912;30.300;2023-10-19T07:18:21;101171.88;;;6.17;68.74
35918;BME280;22011;59.912;30.300;2023-10-19T07:20:52;101175.09;;;6.20;68.89
35918;BME280;22011;59.912;30.300;2023-10-19T07:23:26;101174.41;;;6.18;67.71
35918;BME280;22011;59.912;30.300;2023-10-19T07:25:55;101182.22;;;6.20;68.07
35918;BME280;22011;59.912;30.300;2023-10-19T07:28:26;101178.59;;;6.21;67.91
35918;BME280;22011;59.912;30.300;2023-10-19T07:30:54;101178.47;;;6.22;67.47
35918;BME280;22011;59.912;30.300;2023-10-19T07:33:22;101172.47;;;6.20;66.86
35918;BME280;22011;59.912;30.300;2023-10-19T07:35:51;101183.88;;;6.21;68.05
35918;BME280;22011;59.912;30.300;2023-10-19T07:38:21;101183.03;;;6.20;67.40
35918;BME280;22011;59.912;30.300;2023-10-19T07:40:49;101186.41;;;6.22;67.17
35918;BME280;22011;59.912;30.300;2023-10-19T07:43:19;101190.72;;;6.23;66.79
35918;BME280;22011;59.912;30.300;2023-10-19T07:45:48;101191.81;;;6.21;66.78
35918;BME280;22011;59.912;30.300;2023-10-19T07:48:16;101186.91;;;6.16;68.32
35918;BME280;22011;59.912;30.300;2023-10-19T07:50:43;101185.47;;;6.12;68.08
35918;BME280;22011;59.912;30.300;2023-10-19T07:53:13;101188.72;;;6.16;68.42
35918;BME280;22011;59.912;30.300;2023-10-19T07:55:41;101194.97;;;6.15;67.34
35918;BME280;22011;59.912;30.300;2023-10-19T07:58:09;101189.44;;;6.18;68.71
35918;BME280;22011;59.912;30.300;2023-10-19T08:00:38;101187.53;;;6.09;68.32
35918;BME280;22011;59.912;30.300;2023-10-19T08:03:08;101196.94;;;6.02;68.88
35918;BME280;22011;59.912;30.300;2023-10-19T08:05:36;101197.06;;;6.00;69.55
35918;BME280;22011;59.912;30.300;2023-10-19T08:08:04;101204.75;;;6.03;69.03
35918;BME280;22011;59.912;30.300;2023-10-19T08:10:34;101206.19;;;6.07;68.72
35918;BME280;22011;59.912;30.300;2023-10-19T08:13:01;101208.81;;;6.07;68.35
35918;BME280;22011;59.912;30.300;2023-10-19T08:15:29;101217.84;;;6.05;68.92
35918;BME280;22011;59.912;30.300;2023-10-19T08:17:57;101208.94;;;6.06;69.35
35918;BME280;22011;59.912;30.300;2023-10-19T08:20:25;101212.44;;;6.06;68.81
35918;BME280;22011;59.912;30.300;2023-10-19T08:22:57;101209.78;;;6.06;69.44
35918;BME280;22011;59.912;30.300;2023-10-19T08:25:25;101216.28;;;6.02;69.03
35918;BME280;22011;59.912;30.300;2023-10-19T08:27:55;101216.88;;;6.06;68.31
35918;BME280;22011;59.912;30.300;2023-10-19T08:30:24;101221.69;;;6.12;67.55
35918;BME280;22011;59.912;30.300;2023-10-19T08:32:52;101218.41;;;6.19;68.67
35918;BME280;22011;59.912;30.300;2023-10-19T08:35:20;101221.06;;;6.19;68.20
35918;BME280;22011;59.912;30.300;2023-10-19T08:37:50;101223.94;;;6.16;67.61
35918;BME280;22011;59.912;30.300;2023-10-19T08:40:19;101215.75;;;6.19;67.02
35918;BME280;22011;59.912;30.300;2023-10-19T08:42:49;101224.13;;;6.24;66.89
35918;BME280;22011;59.912;30.300;2023-10-19T08:45:19;101223.75;;;6.29;67.11
35918;BME280;22011;59.912;30.300;2023-10-19T08:47:51;101225.91;;;6.35;66.84
35918;BME280;22011;59.912;30.300;2023-10-19T08:50:23;101230.34;;;6.35;66.60
35918;BME280;22011;59.912;30.300;2023-10-19T08:52:54;101233.84;;;6.35;66.33
35918;BME280;22011;59.912;30.300;2023-10-19T08:55:22;101234.41;;;6.39;66.20
35918;BME280;22011;59.912;30.300;2023-10-19T08:57:50;101241.97;;;6.43;65.78
35918;BME280;22011;59.912;30.300;2023-10-19T09:00:19;101240.38;;;6.52;66.05
35918;BME280;22011;59.912;30.300;2023-10-19T09:02:51;101239.53;;;6.51;65.64
35918;BME280;22011;59.912;30.300;2023-10-19T09:05:20;101235.34;;;6.49;64.99
35918;BME280;22011;59.912;30.300;2023-10-19T09:07:49;101239.53;;;6.51;64.78
35918;BME280;22011;59.912;30.300;2023-10-19T09:10:20;101244.59;;;6.54;65.28
35918;BME280;22011;59.912;30.300;2023-10-19T09:12:59;101241.75;;;6.67;65.50
35918;BME280;22011;59.912;30.300;2023-10-19T09:15:29;101243.50;;;6.57;64.45
35918;BME280;22011;59.912;30.300;2023-10-19T09:18:11;101239.81;;;6.69;64.79
35918;BME280;22011;59.912;30.300;2023-10-19T09:20:39;101245.28;;;6.56;64.61
35918;BME280;22011;59.912;30.300;2023-10-19T09:23:08;101243.03;;;6.52;64.88
35918;BME280;22011;59.912;30.300;2023-10-19T09:25:37;101249.81;;;6.45;65.13
35918;BME280;22011;59.912;30.300;2023-10-19T09:28:06;101243.53;;;6.46;66.24
35918;BME280;22011;59.912;30.300;2023-10-19T09:30:38;101255.81;;;6.47;65.24
35918;BME280;22011;59.912;30.300;2023-10-19T09:33:09;101256.78;;;6.46;66.61
35918;BME280;22011;59.912;30.300;2023-10-19T09:35:39;101261.13;;;6.36;66.07
35918;BME280;22011;59.912;30.300;2023-10-19T09:38:09;101256.09;;;6.33;65.63
35918;BME280;22011;59.912;30.300;2023-10-19T09:40:37;101249.97;;;6.32;65.54
35918;BME280;22011;59.912;30.300;2023-10-19T09:43:12;101257.88;;;6.43;67.03
35918;BME280;22011;59.912;30.300;2023-10-19T09:45:48;101250.50;;;6.47;65.12
35918;BME280;22011;59.912;30.300;2023-10-19T09:48:18;101262.66;;;6.49;63.98
35918;BME280;22011;59.912;30.300;2023-10-19T09:50:51;101258.88;;;6.63;64.06
35918;BME280;22011;59.912;30.300;2023-10-19T09:53:23;101257.66;;;6.67;63.63
35918;BME280;22011;59.912;30.300;2023-10-19T09:55:54;101256.28;;;6.73;64.92
35918;BME280;22011;59.912;30.300;2023-10-19T09:58:27;101254.81;;;6.80;64.07
35918;BME280;22011;59.912;30.300;2023-10-19T10:00:57;101251.06;;;6.82;62.28
35918;BME280;22011;59.912;30.300;2023-10-19T10:03:47;101256.09;;;7.06;63.65
35918;BME280;22011;59.912;30.300;2023-10-19T10:06:16;101252.69;;;6.95;61.65
35918;BME280;22011;59.912;30.300;2023-10-19T10:08:48;101256.28;;;6.94;63.53
35918;BME280;22011;59.912;30.300;2023-10-19T10:11:18;101255.59;;;6.92;63.72
35918;BME280;22011;59.912;30.300;2023-10-19T10:13:46;101254.63;;;6.93;64.37
35918;BME280;22011;59.912;30.300;2023-10-19T10:16:19;101259.41;;;6.99;63.00
35918;BME280;22011;59.912;30.300;2023-10-19T10:18:47;101257.72;;;7.28;63.83
35918;BME280;22011;59.912;30.300;2023-10-19T10:21:17;101269.03;;;7.00;62.46
35918;BME280;22011;59.912;30.300;2023-10-19T10:23:47;101257.63;;;7.39;63.53
35918;BME280;22011;59.912;30.300;2023-10-19T10:26:16;101263.00;;;7.18;61.83
35918;BME280;22011;59.912;30.300;2023-10-19T10:28:48;101264.56;;;7.21;61.84
35918;BME280;22011;59.912;30.300;2023-10-19T10:31:21;101262.75;;;7.21;61.04
35918;BME280;22011;59.912;30.300;2023-10-19T10:33:50;101261.84;;;7.11;60.04
35918;BME280;22011;59.912;30.300;2023-10-19T10:36:21;101266.31;;;7.11;62.01
35918;BME280;22011;59.912;30.300;2023-10-19T10:38:50;101266.75;;;7.16;61.85
35918;BME280;22011;59.912;30.300;2023-10-19T10:41:21;101270.97;;;7.28;60.61
35918;BME280;22011;59.912;30.300;2023-10-19T10:43:53;101270.16;;;7.28;60.49
35918;BME280;22011;59.912;30.300;2023-10-19T10:46:23;101277.44;;;7.35;60.31
35918;BME280;22011;59.912;30.300;2023-10-19T10:48:51;101277.97;;;7.29;60.98
35918;BME280;22011;59.912;30.300;2023-10-19T10:51:20;101274.34;;;7.30;60.47
35918;BME280;22011;59.912;30.300;2023-10-19T10:53:50;101275.19;;;7.31;61.05
35918;BME280;22011;59.912;30.300;2023-10-19T10:56:19;101283.72;;;7.34;61.01
35918;BME280;22011;59.912;30.300;2023-10-19T10:58:47;101277.97;;;7.29;60.14
35918;BME280;22011;59.912;30.300;2023-10-19T11:01:14;101277.41;;;7.26;61.08
35918;BME280;22011;59.912;30.300;2023-10-19T11:03:43;101284.22;;;7.28;61.35
35918;BME280;22011;59.912;30.300;2023-10-19T11:06:12;101272.81;;;7.28;60.52
35918;BME280;22011;59.912;30.300;2023-10-19T11:08:40;101274.63;;;7.27;60.57
35918;BME280;22011;59.912;30.300;2023-10-19T11:11:09;101271.69;;;7.30;60.28
35918;BME280;22011;59.912;30.300;2023-10-19T11:13:38;101285.53;;;7.34;59.32
35918;BME280;22011;59.912;30.300;2023-10-19T11:16:07;101280.94;;;7.36;59.65
35918;BME280;22011;59.912;30.300;2023-10-19T11:18:37;101281.75;;;7.36;58.88
35918;BME280;22011;59.912;30.300;2023-10-19T11:21:08;101279.69;;;7.40;59.37
35918;BME280;22011;59.912;30.300;2023-10-19T11:23:38;101286.22;;;7.36;59.04
35918;BME280;22011;59.912;30.300;2023-10-19T11:26:07;101272.53;;;7.31;58.28
35918;BME280;22011;59.912;30.300;2023-10-19T11:28:35;101282.41;;;7.29;58.48
35918;BME280;22011;59.912;30.300;2023-10-19T11:31:16;101280.53;;;7.40;59.16
35918;BME280;22011;59.912;30.300;2023-10-19T11:33:45;101284.81;;;7.32;58.55
35918;BME280;22011;59.912;30.300;2023-10-19T11:36:17;101285.38;;;7.35;58.71
35918;BME280;22011;59.912;30.300;2023-10-19T11:38:45;101281.19;;;7.63;59.09
35918;BME280;22011;59.912;30.300;2023-10-19T11:41:14;101279.94;;;7.37;58.92
35918;BME280;22011;59.912;30.300;2023-10-19T11:43:43;101276.84;;;7.32;59.04
35918;BME280;22011;59.912;30.300;2023-10-19T11:46:12;101277.97;;;7.29;58.99
35918;BME280;22011;59.912;30.300;2023-10-19T11:48:41;101285.91;;;7.29;59.61
35918;BME280;22011;59.912;30.300;2023-10-19T11:51:09;101283.13;;;7.31;59.49
35918;BME280;22011;59.912;30.300;2023-10-19T11:53:41;101282.88;;;7.34;61.05
35918;BME280;22011;59.912;30.300;2023-10-19T11:56:10;101280.09;;;7.66;60.99
35918;BME280;22011;59.912;30.300;2023-10-19T11:58:39;101279.44;;;7.43;59.39
35918;BME280;22011;59.912;30.300;2023-10-19T12:01:08;101283.63;;;7.45;59.18
35918;BME280;22011;59.912;30.300;2023-10-19T12:03:38;101275.66;;;7.45;58.92
35918;BME280;22011;59.912;30.300;2023-10-19T12:06:07;101283.63;;;7.45;59.24
35918;BME280;22011;59.912;30.300;2023-10-19T12:08:35;101279.13;;;7.36;59.32
35918;BME280;22011;59.912;30.300;2023-10-19T12:11:05;101280.78;;;7.37;59.48
35918;BME280;22011;59.912;30.300;2023-10-19T12:13:41;101286.09;;;7.37;59.41
35918;BME280;22011;59.912;30.300;2023-10-19T12:16:09;101287.06;;;7.36;60.18
35918;BME280;22011;59.912;30.300;2023-10-19T12:18:38;101291.41;;;7.37;60.58
35918;BME280;22011;59.912;30.300;2023-10-19T12:21:08;101290.44;;;7.38;60.59
35918;BME280;22011;59.912;30.300;2023-10-19T12:23:38;101287.06;;;7.36;61.02
35918;BME280;22011;59.912;30.300;2023-10-19T12:26:08;101290.94;;;7.32;62.33
35918;BME280;22011;59.912;30.300;2023-10-19T12:28:38;101293.72;;;7.31;62.15
35918;BME280;22011;59.912;30.300;2023-10-19T12:31:06;101292.19;;;7.28;61.95
35918;BME280;22011;59.912;30.300;2023-10-19T12:33:35;101293.31;;;7.26;62.24
35918;BME280;22011;59.912;30.300;2023-10-19T12:36:03;101298.03;;;7.22;61.29
35918;BME280;22011;59.912;30.300;2023-10-19T12:38:48;101293.97;;;7.18;61.22
35918;BME280;22011;59.912;30.300;2023-10-19T12:41:18;101296.03;;;7.14;62.00
35918;BME280;22011;59.912;30.300;2023-10-19T12:43:47;101297.13;;;7.12;62.94
35918;BME280;22011;59.912;30.300;2023-10-19T12:46:18;101292.94;;;7.09;63.33
35918;BME280;22011;59.912;30.300;2023-10-19T12:48:48;101303.53;;;7.09;63.91
35918;BME280;22011;59.912;30.300;2023-10-19T12:51:15;101308.50;;;7.03;64.67
35918;BME280;22011;59.912;30.300;2023-10-19T12:53:49;101300.09;;;6.98;65.03
35918;BME280;22011;59.912;30.300;2023-10-19T12:56:18;101309.72;;;6.99;64.15
35918;BME280;22011;59.912;30.300;2023-10-19T12:58:47;101301.91;;;6.97;63.32
35918;BME280;22011;59.912;30.300;2023-10-19T13:01:16;101303.47;;;7.00;63.26
35918;BME280;22011;59.912;30.300;2023-10-19T13:03:45;101300.09;;;6.98;62.77
35918;BME280;22011;59.912;30.300;2023-10-19T13:06:13;101308.19;;;6.96;61.86